sensor_id;sensor_type;location;lat;lon;timestamp;pressure;altitude;pressure_sealevel;temperature;humidity
79707;BME280;69200;53.612;-2.416;2023-06-22T00:00:19;100161.81;;;18.06;69.09
79707;BME280;69200;53.612;-2.416;2023-06-22T00:02:45;100157.44;;;17.95;69.45
79707;BME280;69200;53.612;-2.416;2023-06-22T00:05:10;100162.56;;;16.66;67.94
79707;BME280;69200;53.612;-2.416;2023-06-22T00:07:36;100161.75;;;15.67;71.27
79707;BME280;69200;53.612;-2.416;2023-06-22T00:10:01;100155.81;;;15.33;73.83
79707;BME280;69200;53.612;-2.416;2023-06-22T00:12:26;100152.31;;;15.48;75.42
79707;BME280;69200;53.612;-2.416;2023-06-22T00:14:52;100156.84;;;16.83;75.10
79707;BME280;69200;53.612;-2.416;2023-06-22T00:17:17;100151.94;;;16.95;71.38
79707;BME280;69200;53.612;-2.416;2023-06-22T00:19:43;100157.03;;;17.47;72.00
79707;BME280;69200;53.612;-2.416;2023-06-22T00:22:08;100155.88;;;17.84;72.01
79707;BME280;69200;53.612;-2.416;2023-06-22T00:24:34;100167.03;;;18.03;70.92
79707;BME280;69200;53.612;-2.416;2023-06-22T00:26:59;100159.78;;;18.71;69.20
79707;BME280;69200;53.612;-2.416;2023-06-22T00:29:25;100163.06;;;17.54;64.65
79707;BME280;69200;53.612;-2.416;2023-06-22T00:31:50;100168.03;;;16.40;68.84
79707;BME280;69200;53.612;-2.416;2023-06-22T00:34:16;100165.66;;;15.86;70.71
79707;BME280;69200;53.612;-2.416;2023-06-22T00:36:41;100166.63;;;15.60;71.52
79707;BME280;69200;53.612;-2.416;2023-06-22T00:39:07;100163.41;;;15.26;73.08
79707;BME280;69200;53.612;-2.416;2023-06-22T00:41:33;100168.66;;;15.37;72.53
79707;BME280;69200;53.612;-2.416;2023-06-22T00:43:59;100160.31;;;15.12;73.41
79707;BME280;69200;53.612;-2.416;2023-06-22T00:46:24;100165.25;;;14.78;74.55
79707;BME280;69200;53.612;-2.416;2023-06-22T00:48:51;100167.00;;;14.94;73.90
79707;BME280;69200;53.612;-2.416;2023-06-22T00:51:17;100163.28;;;14.73;74.97
79707;BME280;69200;53.612;-2.416;2023-06-22T00:53:49;100160.59;;;14.46;75.95
79707;BME280;69200;53.612;-2.416;2023-06-22T00:56:15;100161.69;;;14.77;74.77
79707;BME280;69200;53.612;-2.416;2023-06-22T00:58:45;100164.44;;;14.82;74.53
79707;BME280;69200;53.612;-2.416;2023-06-22T01:01:11;100158.00;;;14.94;73.98
79707;BME280;69200;53.612;-2.416;2023-06-22T01:03:36;100152.03;;;15.02;73.48
79707;BME280;69200;53.612;-2.416;2023-06-22T01:06:10;100160.28;;;14.75;74.20
79707;BME280;69200;53.612;-2.416;2023-06-22T01:11:25;100150.22;;;14.80;72.09
79707;BME280;69200;53.612;-2.416;2023-06-22T01:14:03;100161.63;;;14.72;74.63
79707;BME280;69200;53.612;-2.416;2023-06-22T01:16:31;100153.13;;;15.01;73.22
79707;BME280;69200;53.612;-2.416;2023-06-22T01:19:28;100149.19;;;15.29;71.89
79707;BME280;69200;53.612;-2.416;2023-06-22T01:21:55;100155.00;;;15.37;72.00
79707;BME280;69200;53.612;-2.416;2023-06-22T01:24:27;100163.31;;;14.78;73.86
79707;BME280;69200;53.612;-2.416;2023-06-22T01:29:36;100163.13;;;15.27;72.46
79707;BME280;69200;53.612;-2.416;2023-06-22T01:32:04;100160.63;;;15.63;71.32
79707;BME280;69200;53.612;-2.416;2023-06-22T01:34:31;100158.47;;;15.70;71.58
79707;BME280;69200;53.612;-2.416;2023-06-22T01:36:57;100160.59;;;15.16;73.39
79707;BME280;69200;53.612;-2.416;2023-06-22T01:39:24;100165.66;;;15.86;71.13
79707;BME280;69200;53.612;-2.416;2023-06-22T01:41:50;100171.00;;;16.23;70.52
79707;BME280;69200;53.612;-2.416;2023-06-22T01:44:16;100171.78;;;16.09;70.83
79707;BME280;69200;53.612;-2.416;2023-06-22T01:46:42;100176.97;;;16.05;71.79
79707;BME280;69200;53.612;-2.416;2023-06-22T01:49:07;100171.22;;;16.07;71.20
79707;BME280;69200;53.612;-2.416;2023-06-22T01:51:33;100175.50;;;15.35;74.00
79707;BME280;69200;53.612;-2.416;2023-06-22T01:53:59;100181.25;;;15.81;72.87
79707;BME280;69200;53.612;-2.416;2023-06-22T01:56:26;100178.72;;;15.64;70.87
79707;BME280;69200;53.612;-2.416;2023-06-22T01:59:03;100188.41;;;15.45;73.44
79707;BME280;69200;53.612;-2.416;2023-06-22T02:01:43;100189.88;;;16.15;72.58
79707;BME280;69200;53.612;-2.416;2023-06-22T02:04:13;100191.56;;;16.31;71.00
79707;BME280;69200;53.612;-2.416;2023-06-22T02:06:42;100190.22;;;16.49;70.11
79707;BME280;69200;53.612;-2.416;2023-06-22T02:09:19;100187.19;;;16.40;71.18
79707;BME280;69200;53.612;-2.416;2023-06-22T02:11:47;100184.44;;;16.35;71.79
79707;BME280;69200;53.612;-2.416;2023-06-22T02:14:17;100171.63;;;16.66;69.61
79707;BME280;69200;53.612;-2.416;2023-06-22T02:16:43;100195.13;;;16.32;72.04
79707;BME280;69200;53.612;-2.416;2023-06-22T02:19:08;100199.50;;;16.33;70.79
79707;BME280;69200;53.612;-2.416;2023-06-22T02:21:34;100196.81;;;16.58;70.66
79707;BME280;69200;53.612;-2.416;2023-06-22T02:23:59;100190.56;;;15.85;71.18
79707;BME280;69200;53.612;-2.416;2023-06-22T02:26:25;100189.56;;;16.11;70.62
79707;BME280;69200;53.612;-2.416;2023-06-22T02:28:51;100190.72;;;16.26;72.39
79707;BME280;69200;53.612;-2.416;2023-06-22T02:31:17;100190.50;;;16.58;69.78
79707;BME280;69200;53.612;-2.416;2023-06-22T02:33:43;100189.69;;;16.67;70.50
79707;BME280;69200;53.612;-2.416;2023-06-22T02:36:09;100198.63;;;16.17;69.72
79707;BME280;69200;53.612;-2.416;2023-06-22T02:38:37;100197.78;;;15.59;72.67
79707;BME280;69200;53.612;-2.416;2023-06-22T02:41:03;100203.94;;;15.39;75.25
79707;BME280;69200;53.612;-2.416;2023-06-22T02:43:28;100198.84;;;16.00;72.76
79707;BME280;69200;53.612;-2.416;2023-06-22T02:45:54;100214.56;;;14.98;74.43
79707;BME280;69200;53.612;-2.416;2023-06-22T02:48:20;100206.59;;;14.38;76.61
79707;BME280;69200;53.612;-2.416;2023-06-22T02:50:45;100208.41;;;15.13;77.48
79707;BME280;69200;53.612;-2.416;2023-06-22T02:53:11;100207.25;;;15.83;75.56
79707;BME280;69200;53.612;-2.416;2023-06-22T02:55:36;100205.97;;;15.54;72.61
79707;BME280;69200;53.612;-2.416;2023-06-22T02:58:01;100212.09;;;16.29;72.86
79707;BME280;69200;53.612;-2.416;2023-06-22T03:00:30;100214.63;;;16.66;73.01
79707;BME280;69200;53.612;-2.416;2023-06-22T03:02:56;100213.06;;;16.85;71.15
79707;BME280;69200;53.612;-2.416;2023-06-22T03:05:22;100214.97;;;17.15;70.53
79707;BME280;69200;53.612;-2.416;2023-06-22T03:07:47;100216.06;;;17.19;69.83
79707;BME280;69200;53.612;-2.416;2023-06-22T03:10:14;100218.69;;;16.43;69.60
79707;BME280;69200;53.612;-2.416;2023-06-22T03:12:40;100225.66;;;16.81;71.61
79707;BME280;69200;53.612;-2.416;2023-06-22T03:15:08;100222.63;;;16.72;71.87
79707;BME280;69200;53.612;-2.416;2023-06-22T03:17:34;100219.28;;;16.65;71.68
79707;BME280;69200;53.612;-2.416;2023-06-22T03:20:03;100222.31;;;16.54;71.42
79707;BME280;69200;53.612;-2.416;2023-06-22T03:22:38;100224.47;;;16.46;72.40
79707;BME280;69200;53.612;-2.416;2023-06-22T03:25:04;100221.97;;;16.35;73.08
79707;BME280;69200;53.612;-2.416;2023-06-22T03:27:35;100213.41;;;16.16;73.25
79707;BME280;69200;53.612;-2.416;2023-06-22T03:30:00;100225.66;;;16.03;75.62
79707;BME280;69200;53.612;-2.416;2023-06-22T03:32:25;100229.66;;;15.75;76.03
79707;BME280;69200;53.612;-2.416;2023-06-22T03:34:53;100218.38;;;15.29;77.11
79707;BME280;69200;53.612;-2.416;2023-06-22T03:37:18;100219.84;;;15.47;76.48
79707;BME280;69200;53.612;-2.416;2023-06-22T03:39:44;100215.34;;;15.63;76.28
79707;BME280;69200;53.612;-2.416;2023-06-22T03:42:09;100217.84;;;15.64;76.21
79707;BME280;69200;53.612;-2.416;2023-06-22T03:44:35;100219.53;;;15.38;77.08
79707;BME280;69200;53.612;-2.416;2023-06-22T03:47:04;100220.13;;;15.41;77.42
79707;BME280;69200;53.612;-2.416;2023-06-22T03:49:29;100219.88;;;15.10;78.76
79707;BME280;69200;53.612;-2.416;2023-06-22T03:51:55;100221.59;;;15.21;78.90
79707;BME280;69200;53.612;-2.416;2023-06-22T03:54:20;100223.91;;;15.34;78.66
79707;BME280;69200;53.612;-2.416;2023-06-22T03:56:45;100220.06;;;15.35;78.41
79707;BME280;69200;53.612;-2.416;2023-06-22T03:59:11;100219.19;;;15.25;78.34
79707;BME280;69200;53.612;-2.416;2023-06-22T04:01:36;100218.03;;;15.21;79.37
79707;BME280;69200;53.612;-2.416;2023-06-22T04:04:02;100221.53;;;15.48;78.11
79707;BME280;69200;53.612;-2.416;2023-06-22T04:06:27;100228.22;;;15.30;79.32
79707;BME280;69200;53.612;-2.416;2023-06-22T04:08:53;100231.56;;;15.75;77.54
79707;BME280;69200;53.612;-2.416;2023-06-22T04:11:18;100222.50;;;15.64;77.22
79707;BME280;69200;53.612;-2.416;2023-06-22T04:13:44;100232.59;;;14.94;79.60
79707;BME280;69200;53.612;-2.416;2023-06-22T04:16:09;100232.34;;;15.65;78.33
79707;BME280;69200;53.612;-2.416;2023-06-22T04:18:34;100235.97;;;15.44;78.05
79707;BME280;69200;53.612;-2.416;2023-06-22T04:21:00;100234.63;;;15.09;80.16
79707;BME280;69200;53.612;-2.416;2023-06-22T04:23:25;100229.25;;;15.56;78.17
79707;BME280;69200;53.612;-2.416;2023-06-22T04:25:51;100238.22;;;15.52;78.77
79707;BME280;69200;53.612;-2.416;2023-06-22T04:28:16;100235.22;;;15.48;79.15
79707;BME280;69200;53.612;-2.416;2023-06-22T04:30:42;100234.97;;;15.55;77.98
79707;BME280;69200;53.612;-2.416;2023-06-22T04:33:12;100238.28;;;16.04;76.19
79707;BME280;69200;53.612;-2.416;2023-06-22T04:35:37;100224.41;;;16.26;75.95
79707;BME280;69200;53.612;-2.416;2023-06-22T04:38:06;100224.09;;;16.12;75.91
79707;BME280;69200;53.612;-2.416;2023-06-22T04:40:31;100234.88;;;16.44;73.90
79707;BME280;69200;53.612;-2.416;2023-06-22T04:42:57;100235.25;;;17.14;72.87
79707;BME280;69200;53.612;-2.416;2023-06-22T04:45:22;100232.78;;;16.77;72.76
79707;BME280;69200;53.612;-2.416;2023-06-22T04:47:49;100236.03;;;17.55;71.73
79707;BME280;69200;53.612;-2.416;2023-06-22T04:50:14;100234.28;;;18.65;67.10
79707;BME280;69200;53.612;-2.416;2023-06-22T04:52:40;100234.25;;;18.75;66.56
79707;BME280;69200;53.612;-2.416;2023-06-22T04:55:06;100231.88;;;19.32;64.25
79707;BME280;69200;53.612;-2.416;2023-06-22T04:57:31;100227.72;;;19.68;63.83
79707;BME280;69200;53.612;-2.416;2023-06-22T04:59:58;100230.16;;;19.94;62.99
79707;BME280;69200;53.612;-2.416;2023-06-22T05:02:36;100229.50;;;20.68;60.18
79707;BME280;69200;53.612;-2.416;2023-06-22T05:05:03;100228.38;;;20.88;59.79
79707;BME280;69200;53.612;-2.416;2023-06-22T05:07:35;100225.59;;;21.40;57.73
79707;BME280;69200;53.612;-2.416;2023-06-22T05:10:04;100226.22;;;20.48;59.71
79707;BME280;69200;53.612;-2.416;2023-06-22T05:12:30;100236.66;;;20.03;60.83
79707;BME280;69200;53.612;-2.416;2023-06-22T05:14:56;100232.69;;;20.57;59.95
79707;BME280;69200;53.612;-2.416;2023-06-22T05:17:22;100239.84;;;20.95;58.96
79707;BME280;69200;53.612;-2.416;2023-06-22T05:19:47;100228.00;;;22.56;54.61
79707;BME280;69200;53.612;-2.416;2023-06-22T05:22:16;100238.09;;;22.75;54.09
79707;BME280;69200;53.612;-2.416;2023-06-22T05:24:42;100232.88;;;23.32;52.23
79707;BME280;69200;53.612;-2.416;2023-06-22T05:27:08;100234.38;;;22.29;54.48
79707;BME280;69200;53.612;-2.416;2023-06-22T05:29:33;100242.25;;;21.67;56.87
79707;BME280;69200;53.612;-2.416;2023-06-22T05:31:58;100242.03;;;21.64;57.03
79707;BME280;69200;53.612;-2.416;2023-06-22T05:34:24;100237.38;;;22.19;56.06
79707;BME280;69200;53.612;-2.416;2023-06-22T05:36:49;100243.31;;;23.35;53.16
79707;BME280;69200;53.612;-2.416;2023-06-22T05:39:15;100229.19;;;23.67;52.02
79707;BME280;69200;53.612;-2.416;2023-06-22T05:41:41;100236.19;;;23.65;51.52
79707;BME280;69200;53.612;-2.416;2023-06-22T05:44:06;100233.59;;;24.08;50.21
79707;BME280;69200;53.612;-2.416;2023-06-22T05:46:32;100230.31;;;24.06;50.74
79707;BME280;69200;53.612;-2.416;2023-06-22T05:48:57;100238.78;;;24.41;49.78
79707;BME280;69200;53.612;-2.416;2023-06-22T05:51:22;100235.69;;;24.42;49.51
79707;BME280;69200;53.612;-2.416;2023-06-22T05:53:48;100237.97;;;24.58;49.11
79707;BME280;69200;53.612;-2.416;2023-06-22T05:56:15;100239.91;;;24.40;49.42
79707;BME280;69200;53.612;-2.416;2023-06-22T05:58:41;100239.91;;;24.40;49.96
79707;BME280;69200;53.612;-2.416;2023-06-22T06:01:06;100234.56;;;25.30;47.94
79707;BME280;69200;53.612;-2.416;2023-06-22T06:03:32;100244.13;;;25.76;46.10
79707;BME280;69200;53.612;-2.416;2023-06-22T06:05:57;100238.66;;;25.32;47.03
79707;BME280;69200;53.612;-2.416;2023-06-22T06:08:22;100238.94;;;24.44;48.99
79707;BME280;69200;53.612;-2.416;2023-06-22T06:10:48;100238.44;;;25.55;46.70
79707;BME280;69200;53.612;-2.416;2023-06-22T06:13:13;100236.72;;;25.88;45.74
79707;BME280;69200;53.612;-2.416;2023-06-22T06:15:39;100246.78;;;25.55;46.12
79707;BME280;69200;53.612;-2.416;2023-06-22T06:18:05;100244.31;;;26.09;45.28
79707;BME280;69200;53.612;-2.416;2023-06-22T06:20:31;100236.66;;;25.59;45.98
79707;BME280;69200;53.612;-2.416;2023-06-22T06:22:57;100250.81;;;25.83;46.45
79707;BME280;69200;53.612;-2.416;2023-06-22T06:25:23;100241.28;;;25.20;47.87
79707;BME280;69200;53.612;-2.416;2023-06-22T06:27:51;100249.44;;;24.91;48.15
79707;BME280;69200;53.612;-2.416;2023-06-22T06:30:18;100253.31;;;26.44;45.50
79707;BME280;69200;53.612;-2.416;2023-06-22T06:32:44;100254.69;;;26.29;44.51
79707;BME280;69200;53.612;-2.416;2023-06-22T06:35:11;100264.13;;;25.52;47.09
79707;BME280;69200;53.612;-2.416;2023-06-22T06:37:39;100254.22;;;24.24;50.15
79707;BME280;69200;53.612;-2.416;2023-06-22T06:40:06;100247.28;;;26.04;45.57
79707;BME280;69200;53.612;-2.416;2023-06-22T06:42:39;100244.03;;;27.23;43.54
79707;BME280;69200;53.612;-2.416;2023-06-22T06:45:12;100239.03;;;27.17;43.45
79707;BME280;69200;53.612;-2.416;2023-06-22T06:47:39;100245.28;;;26.72;44.51
79707;BME280;69200;53.612;-2.416;2023-06-22T06:50:05;100246.66;;;26.28;44.95
79707;BME280;69200;53.612;-2.416;2023-06-22T06:52:31;100244.09;;;25.84;46.24
79707;BME280;69200;53.612;-2.416;2023-06-22T06:54:57;100248.81;;;25.20;47.64
79707;BME280;69200;53.612;-2.416;2023-06-22T06:57:22;100246.84;;;26.31;45.30
79707;BME280;69200;53.612;-2.416;2023-06-22T06:59:48;100251.00;;;25.78;47.03
79707;BME280;69200;53.612;-2.416;2023-06-22T07:02:15;100260.81;;;26.14;45.60
79707;BME280;69200;53.612;-2.416;2023-06-22T07:04:40;100248.44;;;26.41;45.23
79707;BME280;69200;53.612;-2.416;2023-06-22T07:07:06;100263.44;;;23.71;51.58
79707;BME280;69200;53.612;-2.416;2023-06-22T07:09:31;100268.63;;;23.64;51.58
79707;BME280;69200;53.612;-2.416;2023-06-22T07:11:57;100270.84;;;24.99;48.55
79707;BME280;69200;53.612;-2.416;2023-06-22T07:14:22;100276.50;;;26.57;45.60
79707;BME280;69200;53.612;-2.416;2023-06-22T07:16:47;100285.22;;;26.97;44.88
79707;BME280;69200;53.612;-2.416;2023-06-22T07:19:13;100279.19;;;27.49;42.67
79707;BME280;69200;53.612;-2.416;2023-06-22T07:21:38;100293.22;;;28.19;42.11
79707;BME280;69200;53.612;-2.416;2023-06-22T07:24:05;100276.50;;;27.40;41.00
79707;BME280;69200;53.612;-2.416;2023-06-22T07:26:31;100284.03;;;27.07;42.50
79707;BME280;69200;53.612;-2.416;2023-06-22T07:28:57;100283.59;;;26.96;43.11
79707;BME280;69200;53.612;-2.416;2023-06-22T07:31:24;100282.09;;;26.98;41.85
79707;BME280;69200;53.612;-2.416;2023-06-22T07:33:49;100288.47;;;26.99;41.48
79707;BME280;69200;53.612;-2.416;2023-06-22T07:36:16;100284.13;;;26.89;40.35
79707;BME280;69200;53.612;-2.416;2023-06-22T07:38:41;100283.91;;;26.94;37.09
79707;BME280;69200;53.612;-2.416;2023-06-22T07:41:07;100280.69;;;26.63;37.44
79707;BME280;69200;53.612;-2.416;2023-06-22T07:43:32;100276.22;;;26.49;36.80
79707;BME280;69200;53.612;-2.416;2023-06-22T07:45:59;100288.84;;;27.18;35.79
79707;BME280;69200;53.612;-2.416;2023-06-22T07:48:25;100284.75;;;27.37;34.24
79707;BME280;69200;53.612;-2.416;2023-06-22T07:50:51;100297.25;;;27.10;35.95
79707;BME280;69200;53.612;-2.416;2023-06-22T07:53:18;100290.75;;;27.59;34.73
79707;BME280;69200;53.612;-2.416;2023-06-22T07:55:43;100292.56;;;27.76;32.94
79707;BME280;69200;53.612;-2.416;2023-06-22T07:58:08;100288.19;;;27.54;34.48
79707;BME280;69200;53.612;-2.416;2023-06-22T08:00:34;100288.44;;;26.57;36.14
79707;BME280;69200;53.612;-2.416;2023-06-22T08:02:59;100289.19;;;27.17;36.02
79707;BME280;69200;53.612;-2.416;2023-06-22T08:05:25;100289.44;;;26.82;34.76
79707;BME280;69200;53.612;-2.416;2023-06-22T08:07:50;100289.84;;;26.34;33.56
79707;BME280;69200;53.612;-2.416;2023-06-22T08:10:16;100291.06;;;26.24;34.40
79707;BME280;69200;53.612;-2.416;2023-06-22T08:12:42;100291.53;;;25.71;35.76
79707;BME280;69200;53.612;-2.416;2023-06-22T08:15:08;100291.69;;;25.91;36.63
79707;BME280;69200;53.612;-2.416;2023-06-22T08:17:35;100300.06;;;25.57;35.00
79707;BME280;69200;53.612;-2.416;2023-06-22T08:20:01;100295.69;;;24.95;36.58
79707;BME280;69200;53.612;-2.416;2023-06-22T08:22:30;100294.56;;;25.14;37.02
79707;BME280;69200;53.612;-2.416;2023-06-22T08:24:55;100287.94;;;24.58;38.63
79707;BME280;69200;53.612;-2.416;2023-06-22T08:27:21;100296.16;;;23.92;39.43
79707;BME280;69200;53.612;-2.416;2023-06-22T08:29:48;100294.78;;;23.81;39.17
79707;BME280;69200;53.612;-2.416;2023-06-22T08:32:15;100294.94;;;23.76;40.16
79707;BME280;69200;53.612;-2.416;2023-06-22T08:34:40;100302.31;;;24.68;40.87
79707;BME280;69200;53.612;-2.416;2023-06-22T08:37:10;100297.31;;;24.88;39.18
79707;BME280;69200;53.612;-2.416;2023-06-22T08:39:36;100297.31;;;24.96;39.48
79707;BME280;69200;53.612;-2.416;2023-06-22T08:42:01;100299.16;;;23.28;42.38
79707;BME280;69200;53.612;-2.416;2023-06-22T08:44:27;100286.81;;;24.67;40.05
79707;BME280;69200;53.612;-2.416;2023-06-22T08:46:52;100294.19;;;23.61;42.33
79707;BME280;69200;53.612;-2.416;2023-06-22T08:49:18;100282.53;;;24.52;40.85
79707;BME280;69200;53.612;-2.416;2023-06-22T08:51:43;100304.00;;;22.73;44.05
79707;BME280;69200;53.612;-2.416;2023-06-22T08:54:10;100296.50;;;23.90;42.10
79707;BME280;69200;53.612;-2.416;2023-06-22T08:56:36;100293.41;;;23.92;43.35
79707;BME280;69200;53.612;-2.416;2023-06-22T08:59:01;100291.00;;;23.09;45.41
79707;BME280;69200;53.612;-2.416;2023-06-22T09:01:27;100293.16;;;23.80;42.92
79707;BME280;69200;53.612;-2.416;2023-06-22T09:03:52;100296.66;;;23.94;42.91
79707;BME280;69200;53.612;-2.416;2023-06-22T09:06:23;100297.19;;;24.36;42.48
79707;BME280;69200;53.612;-2.416;2023-06-22T09:08:49;100291.69;;;24.13;43.14
79707;BME280;69200;53.612;-2.416;2023-06-22T09:11:14;100298.09;;;24.22;43.15
79707;BME280;69200;53.612;-2.416;2023-06-22T09:13:40;100289.94;;;24.74;41.66
79707;BME280;69200;53.612;-2.416;2023-06-22T09:16:05;100298.75;;;24.28;41.27
79707;BME280;69200;53.612;-2.416;2023-06-22T09:18:32;100303.38;;;25.24;42.33
79707;BME280;69200;53.612;-2.416;2023-06-22T09:20:57;100297.25;;;24.70;40.18
79707;BME280;69200;53.612;-2.416;2023-06-22T09:23:22;100297.88;;;24.50;41.45
79707;BME280;69200;53.612;-2.416;2023-06-22T09:25:48;100305.50;;;23.73;43.40
79707;BME280;69200;53.612;-2.416;2023-06-22T09:28:14;100298.69;;;23.57;43.21
79707;BME280;69200;53.612;-2.416;2023-06-22T09:30:40;100296.59;;;22.82;45.50
79707;BME280;69200;53.612;-2.416;2023-06-22T09:33:06;100304.22;;;23.57;43.86
79707;BME280;69200;53.612;-2.416;2023-06-22T09:35:31;100295.69;;;23.23;44.12
79707;BME280;69200;53.612;-2.416;2023-06-22T09:37:56;100295.22;;;24.05;43.81
79707;BME280;69200;53.612;-2.416;2023-06-22T09:40:22;100302.41;;;24.46;42.75
79707;BME280;69200;53.612;-2.416;2023-06-22T09:42:47;100295.00;;;24.98;44.12
79707;BME280;69200;53.612;-2.416;2023-06-22T09:45:13;100304.72;;;24.52;40.88
79707;BME280;69200;53.612;-2.416;2023-06-22T09:47:38;100302.22;;;25.25;40.05
79707;BME280;69200;53.612;-2.416;2023-06-22T09:50:04;100295.03;;;25.07;39.95
79707;BME280;69200;53.612;-2.416;2023-06-22T09:52:30;100297.47;;;24.91;39.98
79707;BME280;69200;53.612;-2.416;2023-06-22T09:54:55;100302.53;;;25.50;43.92
79707;BME280;69200;53.612;-2.416;2023-06-22T09:57:21;100299.09;;;25.53;42.33
79707;BME280;69200;53.612;-2.416;2023-06-22T09:59:46;100300.56;;;25.50;39.91
79707;BME280;69200;53.612;-2.416;2023-06-22T10:02:12;100295.47;;;24.74;42.68
79707;BME280;69200;53.612;-2.416;2023-06-22T10:04:38;100307.78;;;24.03;42.05
79707;BME280;69200;53.612;-2.416;2023-06-22T10:07:05;100301.44;;;24.02;43.02
79707;BME280;69200;53.612;-2.416;2023-06-22T10:09:31;100308.06;;;23.61;43.80
79707;BME280;69200;53.612;-2.416;2023-06-22T10:11:56;100304.97;;;23.94;44.82
79707;BME280;69200;53.612;-2.416;2023-06-22T10:14:21;100302.84;;;23.91;44.75
79707;BME280;69200;53.612;-2.416;2023-06-22T10:16:48;100310.78;;;23.39;45.61
79707;BME280;69200;53.612;-2.416;2023-06-22T10:19:13;100300.84;;;23.15;46.88
79707;BME280;69200;53.612;-2.416;2023-06-22T10:21:39;100304.00;;;23.45;47.88
79707;BME280;69200;53.612;-2.416;2023-06-22T10:24:04;100307.63;;;23.99;46.02
79707;BME280;69200;53.612;-2.416;2023-06-22T10:26:33;100307.00;;;23.12;46.22
79707;BME280;69200;53.612;-2.416;2023-06-22T10:28:59;100292.34;;;22.62;47.17
79707;BME280;69200;53.612;-2.416;2023-06-22T10:31:25;100307.50;;;22.65;48.00
79707;BME280;69200;53.612;-2.416;2023-06-22T10:33:50;100296.56;;;23.54;46.95
79707;BME280;69200;53.612;-2.416;2023-06-22T10:36:16;100294.31;;;24.18;45.68
79707;BME280;69200;53.612;-2.416;2023-06-22T10:38:41;100294.59;;;24.08;45.43
79707;BME280;69200;53.612;-2.416;2023-06-22T10:41:07;100298.22;;;24.17;45.77
79707;BME280;69200;53.612;-2.416;2023-06-22T10:43:32;100294.66;;;23.41;45.31
79707;BME280;69200;53.612;-2.416;2023-06-22T10:45:57;100298.06;;;23.15;45.04
79707;BME280;69200;53.612;-2.416;2023-06-22T10:48:23;100303.59;;;22.66;46.82
79707;BME280;69200;53.612;-2.416;2023-06-22T10:50:48;100300.22;;;23.41;46.42
79707;BME280;69200;53.612;-2.416;2023-06-22T10:53:14;100304.22;;;23.57;44.00
79707;BME280;69200;53.612;-2.416;2023-06-22T10:55:39;100310.44;;;23.77;44.85
79707;BME280;69200;53.612;-2.416;2023-06-22T10:58:04;100312.50;;;23.71;44.56
79707;BME280;69200;53.612;-2.416;2023-06-22T11:00:30;100305.16;;;23.97;44.10
79707;BME280;69200;53.612;-2.416;2023-06-22T11:02:55;100310.44;;;24.39;42.53
79707;BME280;69200;53.612;-2.416;2023-06-22T11:05:20;100302.50;;;24.72;42.76
79707;BME280;69200;53.612;-2.416;2023-06-22T11:07:46;100298.59;;;24.99;42.00
79707;BME280;69200;53.612;-2.416;2023-06-22T11:10:12;100297.00;;;26.05;42.23
79707;BME280;69200;53.612;-2.416;2023-06-22T11:12:38;100302.28;;;26.07;40.33
79707;BME280;69200;53.612;-2.416;2023-06-22T11:15:04;100307.50;;;26.46;39.44
79707;BME280;69200;53.612;-2.416;2023-06-22T11:17:29;100305.75;;;25.86;40.13
79707;BME280;69200;53.612;-2.416;2023-06-22T11:19:55;100305.72;;;25.95;40.68
79707;BME280;69200;53.612;-2.416;2023-06-22T11:22:20;100309.78;;;26.06;39.81
79707;BME280;69200;53.612;-2.416;2023-06-22T11:24:45;100307.66;;;26.03;39.42
79707;BME280;69200;53.612;-2.416;2023-06-22T11:27:11;100307.56;;;25.82;40.00
79707;BME280;69200;53.612;-2.416;2023-06-22T11:29:36;100304.59;;;25.87;39.44
79707;BME280;69200;53.612;-2.416;2023-06-22T11:32:04;100304.88;;;26.03;40.22
79707;BME280;69200;53.612;-2.416;2023-06-22T11:34:29;100299.50;;;26.36;41.51
79707;BME280;69200;53.612;-2.416;2023-06-22T11:36:55;100308.16;;;26.73;40.18
79707;BME280;69200;53.612;-2.416;2023-06-22T11:39:20;100304.41;;;26.69;39.41
79707;BME280;69200;53.612;-2.416;2023-06-22T11:41:45;100317.41;;;26.65;40.83
79707;BME280;69200;53.612;-2.416;2023-06-22T11:44:11;100312.34;;;26.58;39.47
79707;BME280;69200;53.612;-2.416;2023-06-22T11:46:36;100302.75;;;26.97;37.96
79707;BME280;69200;53.612;-2.416;2023-06-22T11:49:02;100301.09;;;26.46;38.00
79707;BME280;69200;53.612;-2.416;2023-06-22T11:51:27;100305.53;;;26.97;37.76
79707;BME280;69200;53.612;-2.416;2023-06-22T11:53:53;100299.75;;;27.02;39.43
79707;BME280;69200;53.612;-2.416;2023-06-22T11:56:19;100299.69;;;26.90;36.73
79707;BME280;69200;53.612;-2.416;2023-06-22T11:58:44;100305.19;;;26.10;38.65
79707;BME280;69200;53.612;-2.416;2023-06-22T12:01:10;100304.53;;;26.05;39.08
79707;BME280;69200;53.612;-2.416;2023-06-22T12:03:35;100296.63;;;26.24;40.17
79707;BME280;69200;53.612;-2.416;2023-06-22T12:06:00;100295.13;;;25.88;40.43
79707;BME280;69200;53.612;-2.416;2023-06-22T12:08:26;100298.91;;;25.58;40.99
79707;BME280;69200;53.612;-2.416;2023-06-22T12:10:51;100300.56;;;24.98;41.09
79707;BME280;69200;53.612;-2.416;2023-06-22T12:13:19;100294.09;;;25.12;40.94
79707;BME280;69200;53.612;-2.416;2023-06-22T12:15:44;100296.78;;;24.28;42.29
79707;BME280;69200;53.612;-2.416;2023-06-22T12:18:10;100299.88;;;24.67;42.78
79707;BME280;69200;53.612;-2.416;2023-06-22T12:20:36;100296.16;;;24.89;41.47
79707;BME280;69200;53.612;-2.416;2023-06-22T12:23:02;100298.97;;;25.06;41.45
79707;BME280;69200;53.612;-2.416;2023-06-22T12:25:27;100296.78;;;25.72;41.14
79707;BME280;69200;53.612;-2.416;2023-06-22T12:27:53;100295.03;;;25.33;40.74
79707;BME280;69200;53.612;-2.416;2023-06-22T12:30:19;100302.69;;;25.62;41.55
79707;BME280;69200;53.612;-2.416;2023-06-22T12:32:44;100290.97;;;26.03;39.54
79707;BME280;69200;53.612;-2.416;2023-06-22T12:35:09;100283.06;;;25.50;39.51
79707;BME280;69200;53.612;-2.416;2023-06-22T12:37:40;100292.75;;;25.44;40.77
79707;BME280;69200;53.612;-2.416;2023-06-22T12:40:06;100294.03;;;25.46;41.21